Time;durP1;ratioP1;P1;durP2;ratioP2;P2;SDS_P1;SDS_P2;PMS_P1;PMS_P2;Temp;Humidity;BMP_temperature;BMP_pressure;BME280_temperature;BME280_humidity;BME280_pressure;Samples;Min_cycle;Max_cycle;Signal;HPM_P1;HPM_P2
2022/10/25 00:00:38;;;;;;;572.50;536.60;;;10.70;47.30;;;;;;5013159;28;20204;-68
2022/10/25 00:03:05;;;;;;;621.97;580.90;;;10.70;47.40;;;;;;5013131;28;20515;-68
2022/10/25 00:05:31;;;;;;;694.40;649.10;;;10.60;46.90;;;;;;5011796;28;20419;-68
2022/10/25 00:07:56;;;;;;;493.67;460.13;;;10.60;46.90;;;;;;5008294;28;20502;-68
2022/10/25 00:10:22;;;;;;;459.37;430.87;;;10.60;47.10;;;;;;4993227;28;20196;-67
2022/10/25 00:12:47;;;;;;;546.13;511.23;;;10.60;47.50;;;;;;4993023;28;20184;-68
2022/10/25 00:15:14;;;;;;;470.00;439.77;;;10.60;47.10;;;;;;4993321;28;20256;-68
2022/10/25 00:17:40;;;;;;;594.57;556.40;;;10.70;47.60;;;;;;4993631;28;20188;-68
2022/10/25 00:20:06;;;;;;;565.00;528.47;;;10.70;47.20;;;;;;4993230;28;20415;-67
2022/10/25 00:22:32;;;;;;;701.60;656.47;;;10.80;47.20;;;;;;4992873;28;20496;-69
2022/10/25 00:24:57;;;;;;;539.57;502.47;;;10.80;46.40;;;;;;4993062;28;20494;-68
2022/10/25 00:27:23;;;;;;;666.33;622.37;;;10.80;46.90;;;;;;4997522;28;20586;-69
2022/10/25 00:29:50;;;;;;;488.37;456.50;;;10.80;46.40;;;;;;5012615;28;20325;-68
2022/10/25 00:32:16;;;;;;;707.30;659.60;;;10.80;46.20;;;;;;5012327;28;20190;-68
2022/10/25 00:34:41;;;;;;;301.57;281.87;;;10.80;45.40;;;;;;5012556;28;20411;-68
2022/10/25 00:37:07;;;;;;;465.97;437.80;;;10.70;47.00;;;;;;5010216;28;20364;-68
2022/10/25 00:39:32;;;;;;;430.03;401.03;;;10.80;47.10;;;;;;4999237;28;20303;-68
2022/10/25 00:41:58;;;;;;;540.40;505.40;;;10.90;47.20;;;;;;5011826;28;20282;-69
2022/10/25 00:44:39;;;;;;;605.00;565.50;;;11.00;47.10;;;;;;5012276;28;20180;-68
2022/10/25 00:47:20;;;;;;;650.80;608.00;;;11.10;47.40;;;;;;5010446;28;20175;-68
2022/10/25 00:49:54;;;;;;;734.00;685.57;;;11.10;47.70;;;;;;4992709;28;20553;-69
2022/10/25 00:52:20;;;;;;;499.00;466.03;;;11.20;47.40;;;;;;4992783;28;20447;-68
2022/10/25 00:54:50;;;;;;;404.90;379.73;;;11.20;47.50;;;;;;4992761;28;20431;-66
2022/10/25 00:57:25;;;;;;;410.87;385.67;;;11.30;46.80;;;;;;4995336;28;20411;-68
2022/10/25 00:59:50;;;;;;;673.93;629.67;;;11.20;46.40;;;;;;5011949;28;20462;-67
2022/10/25 01:02:17;;;;;;;808.20;754.00;;;11.20;46.30;;;;;;5011866;28;20839;-67
2022/10/25 01:04:43;;;;;;;531.53;496.03;;;11.20;45.90;;;;;;5012349;28;20270;-67
2022/10/25 01:07:08;;;;;;;336.23;314.60;;;11.10;45.40;;;;;;5010358;28;20415;-67
2022/10/25 01:09:36;;;;;;;760.73;711.30;;;11.10;45.60;;;;;;4991201;28;20486;-67
2022/10/25 01:12:02;;;;;;;623.20;580.37;;;11.00;45.10;;;;;;4992194;28;20188;-67
2022/10/25 01:14:29;;;;;;;751.77;700.17;;;11.00;45.50;;;;;;4992470;28;20420;-68
2022/10/25 01:17:23;;;;;;;446.20;417.63;;;10.90;45.30;;;;;;4992405;28;20211;-68
2022/10/25 01:20:05;;;;;;;363.23;340.77;;;10.90;46.10;;;;;;5006159;28;20786;-68
2022/10/25 01:22:55;;;;;;;689.30;646.13;;;10.80;45.00;;;;;;4990859;28;20450;-68
2022/10/25 01:25:36;;;;;;;575.57;538.90;;;10.80;45.90;;;;;;4992360;28;20415;-68
2022/10/25 01:28:22;;;;;;;703.43;656.77;;;10.60;47.40;;;;;;5000760;28;20423;-68
2022/10/25 01:31:07;;;;;;;550.17;513.80;;;10.70;47.70;;;;;;5011537;28;21004;-69
2022/10/25 01:33:32;;;;;;;589.03;552.27;;;10.60;48.60;;;;;;5011816;28;20486;-67
2022/10/25 01:36:24;;;;;;;367.63;344.57;;;10.70;48.40;;;;;;5011904;28;20557;-68
2022/10/25 01:39:03;;;;;;;590.23;552.60;;;10.60;46.90;;;;;;4996737;28;20176;-67
2022/10/25 01:41:59;;;;;;;611.37;572.27;;;10.50;47.60;;;;;;4991934;28;20439;-68
2022/10/25 01:44:53;;;;;;;504.57;472.60;;;10.40;47.20;;;;;;4989806;28;20423;-68
2022/10/25 01:47:36;;;;;;;582.27;545.07;;;10.40;47.20;;;;;;4994320;28;20488;-68
2022/10/25 01:50:09;;;;;;;364.70;341.50;;;10.30;47.20;;;;;;5011713;28;20465;-68
2022/10/25 01:52:35;;;;;;;383.00;357.43;;;10.30;47.60;;;;;;5011946;28;20446;-69
2022/10/25 01:55:04;;;;;;;305.97;288.17;;;10.30;48.50;;;;;;5012149;28;20967;-69
2022/10/25 01:57:57;;;;;;;342.37;322.57;;;10.30;48.50;;;;;;5000523;28;20271;-69
2022/10/25 02:00:24;;;;;;;606.70;567.37;;;10.40;47.90;;;;;;4995797;28;20423;-69
2022/10/25 02:03:17;;;;;;;694.67;650.30;;;10.30;47.50;;;;;;4995511;28;20531;-69
2022/10/25 02:06:16;;;;;;;674.77;631.93;;;10.20;47.10;;;;;;4995730;28;20487;-69
2022/10/25 02:09:09;;;;;;;499.37;468.43;;;10.10;46.80;;;;;;4995422;28;20428;-69
2022/10/25 02:11:35;;;;;;;345.00;323.53;;;10.10;47.50;;;;;;4995293;28;20447;-69
2022/10/25 02:14:24;;;;;;;594.93;558.40;;;10.10;47.80;;;;;;4995592;28;20403;-69
2022/10/25 02:16:56;;;;;;;791.67;743.00;;;10.10;48.10;;;;;;4995763;28;20510;-70
2022/10/25 02:19:31;;;;;;;578.20;542.23;;;10.10;48.10;;;;;;4995444;28;20411;-70
2022/10/25 02:22:00;;;;;;;548.43;513.57;;;10.00;48.50;;;;;;4995658;28;20425;-69
2022/10/25 02:24:29;;;;;;;603.07;564.93;;;10.10;48.20;;;;;;4995424;28;20415;-69
2022/10/25 02:26:57;;;;;;;345.10;322.00;;;10.10;47.00;;;;;;5004655;28;20488;-69
2022/10/25 02:29:24;;;;;;;692.53;648.57;;;10.10;47.60;;;;;;5014829;28;20410;-69
2022/10/25 02:31:50;;;;;;;445.50;417.80;;;10.00;46.80;;;;;;5003279;28;20463;-69
2022/10/25 02:34:17;;;;;;;431.17;404.87;;;10.10;47.90;;;;;;4995215;28;20415;-70
2022/10/25 02:36:49;;;;;;;393.53;369.07;;;10.00;47.20;;;;;;5002425;28;20558;-70
2022/10/25 02:39:17;;;;;;;754.70;707.73;;;10.00;47.30;;;;;;5014863;28;20418;-70
2022/10/25 02:41:42;;;;;;;445.37;417.17;;;9.90;48.50;;;;;;5014333;28;20440;-69
2022/10/25 02:44:08;;;;;;;575.47;538.93;;;9.90;50.10;;;;;;5014667;28;20406;-69
2022/10/25 02:46:33;;;;;;;740.43;693.53;;;10.00;47.90;;;;;;5004283;28;20220;-69
2022/10/25 02:48:59;;;;;;;568.20;533.33;;;9.90;48.40;;;;;;4994890;28;20183;-69
2022/10/25 02:51:25;;;;;;;788.80;738.70;;;9.80;48.90;;;;;;4994288;28;20298;-69
2022/10/25 02:53:50;;;;;;;547.67;511.77;;;9.80;49.80;;;;;;4994869;28;20184;-69
2022/10/25 02:56:19;;;;;;;532.60;498.80;;;9.80;50.80;;;;;;5002794;28;20541;-69
2022/10/25 02:58:46;;;;;;;399.33;372.53;;;9.70;50.30;;;;;;5014304;28;20171;-69
2022/10/25 03:01:13;;;;;;;673.30;626.90;;;9.70;49.90;;;;;;5013621;28;20604;-69
2022/10/25 03:03:39;;;;;;;574.83;536.57;;;9.80;51.00;;;;;;5014264;28;20459;-69
2022/10/25 03:06:06;;;;;;;658.07;614.97;;;9.90;50.00;;;;;;5007505;28;20435;-68
2022/10/25 03:08:32;;;;;;;482.23;451.70;;;9.90;49.50;;;;;;4994472;28;20825;-69
2022/10/25 03:10:57;;;;;;;671.13;630.17;;;9.90;50.10;;;;;;4994196;28;20657;-69
2022/10/25 03:13:23;;;;;;;626.37;587.30;;;9.90;49.10;;;;;;4994517;28;20454;-69
2022/10/25 03:15:49;;;;;;;673.17;628.87;;;9.90;49.30;;;;;;5003073;28;20200;-69
2022/10/25 03:18:14;;;;;;;538.33;504.70;;;9.90;49.70;;;;;;5013957;28;20607;-69
2022/10/25 03:20:41;;;;;;;540.83;506.57;;;9.90;49.90;;;;;;5013882;28;20187;-69
2022/10/25 03:23:07;;;;;;;515.43;483.20;;;9.90;49.80;;;;;;5013637;28;20183;-69
2022/10/25 03:25:32;;;;;;;534.37;500.13;;;9.80;50.00;;;;;;5006976;28;20443;-69
2022/10/25 03:28:01;;;;;;;548.67;512.77;;;9.80;50.40;;;;;;4994289;28;20555;-68
2022/10/25 03:30:28;;;;;;;691.60;646.50;;;9.80;49.90;;;;;;4993976;28;20232;-69
2022/10/25 03:32:54;;;;;;;416.80;390.07;;;9.80;49.30;;;;;;4993882;28;20428;-69
2022/10/25 03:35:20;;;;;;;478.03;450.27;;;9.70;49.70;;;;;;4998484;28;20434;-69
2022/10/25 03:37:47;;;;;;;523.40;489.93;;;9.70;50.10;;;;;;5013764;28;20430;-69
2022/10/25 03:40:13;;;;;;;581.90;544.20;;;9.70;50.00;;;;;;5013631;28;20417;-69
2022/10/25 03:42:39;;;;;;;588.20;551.87;;;9.70;49.00;;;;;;5013126;28;20975;-69
2022/10/25 03:45:05;;;;;;;479.27;449.27;;;9.60;50.40;;;;;;5010981;28;20419;-69
2022/10/25 03:47:30;;;;;;;571.07;534.57;;;9.60;49.80;;;;;;5001427;28;20200;-69
2022/10/25 03:49:56;;;;;;;478.23;449.50;;;9.60;50.10;;;;;;5013241;28;20885;-69
2022/10/25 03:52:21;;;;;;;684.13;641.43;;;9.60;50.10;;;;;;5012856;28;20211;-70
2022/10/25 03:54:47;;;;;;;399.73;374.10;;;9.60;49.90;;;;;;5013282;28;20187;-69
2022/10/25 03:57:12;;;;;;;390.13;365.57;;;9.60;50.00;;;;;;5007676;28;20192;-69
2022/10/25 03:59:38;;;;;;;642.80;602.53;;;9.70;49.80;;;;;;4993574;28;20195;-70
2022/10/25 04:02:03;;;;;;;478.60;449.93;;;9.70;48.30;;;;;;4993240;28;20219;-69
2022/10/25 04:04:29;;;;;;;306.90;287.70;;;9.60;49.20;;;;;;4993464;28;20187;-69
2022/10/25 04:06:55;;;;;;;547.37;513.53;;;9.60;49.20;;;;;;4996006;28;20191;-69
2022/10/25 04:09:20;;;;;;;543.67;510.60;;;9.60;49.40;;;;;;5012372;28;20654;-69
2022/10/25 04:11:46;;;;;;;620.50;583.03;;;9.60;50.40;;;;;;5012391;28;20207;-69
2022/10/25 04:14:12;;;;;;;592.47;554.93;;;9.60;49.60;;;;;;5012906;28;20168;-69
2022/10/25 04:16:38;;;;;;;496.13;465.10;;;9.60;49.50;;;;;;5012942;28;20181;-69
2022/10/25 04:19:03;;;;;;;350.70;329.40;;;9.60;50.00;;;;;;4992768;28;20921;-69
2022/10/25 04:21:29;;;;;;;513.33;480.30;;;9.50;49.90;;;;;;4992938;28;20231;-69
2022/10/25 04:23:54;;;;;;;611.97;574.93;;;9.60;51.50;;;;;;4993139;28;20243;-69
2022/10/25 04:26:20;;;;;;;483.57;454.17;;;9.50;49.60;;;;;;4993017;28;20183;-69
2022/10/25 04:28:50;;;;;;;553.63;519.70;;;9.50;50.10;;;;;;5010176;28;20180;-68
2022/10/25 04:31:16;;;;;;;523.70;494.60;;;9.50;51.90;;;;;;5011936;28;20222;-68
2022/10/25 04:33:42;;;;;;;608.83;571.03;;;9.40;51.50;;;;;;5012613;28;20777;-68
2022/10/25 04:36:07;;;;;;;356.97;334.13;;;9.40;51.80;;;;;;5012503;28;20433;-68
2022/10/25 04:38:33;;;;;;;622.57;584.03;;;9.40;51.80;;;;;;4996952;28;20565;-68
2022/10/25 04:40:59;;;;;;;291.73;274.97;;;9.40;51.70;;;;;;4991460;28;20254;-68
2022/10/25 04:43:26;;;;;;;447.93;419.20;;;9.40;51.80;;;;;;4992662;28;20340;-69
2022/10/25 04:45:52;;;;;;;653.57;612.73;;;9.50;50.90;;;;;;4993087;28;20931;-68
2022/10/25 04:48:18;;;;;;;524.13;491.37;;;9.30;50.10;;;;;;5005770;28;20940;-68
2022/10/25 04:50:44;;;;;;;600.77;565.37;;;9.30;50.50;;;;;;5011847;28;20488;-68
2022/10/25 04:53:10;;;;;;;583.70;548.23;;;9.30;50.60;;;;;;5012299;28;20418;-68
2022/10/25 04:55:35;;;;;;;323.47;303.87;;;9.30;50.80;;;;;;5012199;28;20918;-68
2022/10/25 04:58:01;;;;;;;459.13;430.90;;;9.30;51.70;;;;;;5001568;28;20191;-68
2022/10/25 05:00:27;;;;;;;577.33;542.80;;;9.30;50.40;;;;;;4992468;28;20188;-68
2022/10/25 05:02:53;;;;;;;443.83;415.77;;;9.30;51.00;;;;;;4992397;28;20252;-68
2022/10/25 05:05:21;;;;;;;514.73;483.00;;;9.30;51.70;;;;;;4992451;28;20415;-68
2022/10/25 05:07:46;;;;;;;527.40;495.33;;;9.40;50.10;;;;;;5000514;28;20443;-68
2022/10/25 05:10:12;;;;;;;439.33;412.83;;;9.40;50.20;;;;;;5011504;28;20495;-68
2022/10/25 05:12:38;;;;;;;441.97;415.10;;;9.40;50.60;;;;;;5002255;28;20323;-68
2022/10/25 05:15:05;;;;;;;400.40;376.10;;;9.40;50.80;;;;;;4993144;28;20239;-68
2022/10/25 05:17:31;;;;;;;399.00;373.93;;;9.50;51.60;;;;;;4992238;28;20929;-68
2022/10/25 05:19:57;;;;;;;574.73;538.13;;;9.50;51.50;;;;;;4992346;28;20916;-68
2022/10/25 05:22:22;;;;;;;575.97;540.03;;;9.50;50.20;;;;;;4992037;28;20475;-68
2022/10/25 05:24:48;;;;;;;457.23;428.33;;;9.40;50.50;;;;;;4993586;28;20192;-68
2022/10/25 05:27:13;;;;;;;591.77;556.97;;;9.40;50.90;;;;;;4992253;28;20199;-68
2022/10/25 05:29:39;;;;;;;599.47;561.43;;;9.40;50.20;;;;;;4992266;28;20212;-68
2022/10/25 05:32:05;;;;;;;453.77;427.67;;;9.40;49.90;;;;;;4995984;28;20605;-68
2022/10/25 05:34:30;;;;;;;381.07;357.40;;;9.40;51.80;;;;;;5004204;28;20184;-68
2022/10/25 05:36:57;;;;;;;516.43;484.47;;;9.40;50.60;;;;;;5015875;28;20184;-68
2022/10/25 05:39:22;;;;;;;468.57;440.20;;;9.30;50.30;;;;;;5016094;28;20655;-68
2022/10/25 05:41:51;;;;;;;593.90;557.70;;;9.30;50.40;;;;;;5015447;28;20430;-68
2022/10/25 05:44:17;;;;;;;651.43;610.93;;;9.30;49.90;;;;;;5009539;28;20643;-68
2022/10/25 05:46:43;;;;;;;316.93;298.70;;;9.30;50.30;;;;;;4996189;28;20410;-69
2022/10/25 05:49:10;;;;;;;535.27;502.80;;;9.30;50.80;;;;;;4995982;28;20300;-69
2022/10/25 05:51:36;;;;;;;323.33;304.37;;;9.30;50.50;;;;;;4995622;28;20544;-69
2022/10/25 05:54:10;;;;;;;297.80;280.20;;;9.40;50.80;;;;;;4999741;28;20433;-69
2022/10/25 05:56:37;;;;;;;491.70;461.07;;;9.40;50.70;;;;;;5015751;28;20424;-69
2022/10/25 05:59:07;;;;;;;626.50;588.73;;;9.40;50.00;;;;;;5015283;28;20434;-69
2022/10/25 06:01:34;;;;;;;458.60;430.90;;;9.40;50.50;;;;;;5015086;28;20449;-69
2022/10/25 06:04:00;;;;;;;591.73;557.17;;;9.40;51.80;;;;;;5011908;28;20944;-69
2022/10/25 06:06:25;;;;;;;640.43;602.47;;;9.40;50.70;;;;;;4995772;28;20416;-69
2022/10/25 06:08:59;;;;;;;546.80;513.70;;;9.40;50.10;;;;;;4995654;28;20173;-69
2022/10/25 06:11:25;;;;;;;451.40;424.80;;;9.40;51.80;;;;;;4995370;28;20208;-68
2022/10/25 06:13:51;;;;;;;584.63;546.27;;;9.50;50.10;;;;;;5002070;28;20453;-69
2022/10/25 06:16:19;;;;;;;649.63;607.90;;;9.40;50.10;;;;;;5015141;28;20411;-69
2022/10/25 06:18:44;;;;;;;474.40;444.53;;;9.40;51.20;;;;;;5015036;28;20445;-69
2022/10/25 06:21:15;;;;;;;306.93;289.43;;;9.40;50.30;;;;;;5014564;28;20974;-69
2022/10/25 06:23:42;;;;;;;586.83;552.77;;;9.40;50.80;;;;;;5011006;28;20184;-69
2022/10/25 06:26:13;;;;;;;486.83;457.47;;;9.40;50.60;;;;;;4995299;28;20423;-69
2022/10/25 06:28:40;;;;;;;500.23;469.77;;;9.40;51.80;;;;;;4995169;28;20443;-69
2022/10/25 06:31:11;;;;;;;513.90;483.20;;;9.40;51.80;;;;;;5004432;28;20523;-69
2022/10/25 06:33:37;;;;;;;601.40;567.67;;;9.40;51.80;;;;;;5014787;28;20415;-69
2022/10/25 06:36:06;;;;;;;627.50;591.93;;;9.40;51.80;;;;;;5014865;28;20441;-68
2022/10/25 06:38:32;;;;;;;564.70;529.13;;;9.50;51.90;;;;;;5014939;28;20429;-68
2022/10/25 06:41:03;;;;;;;450.83;425.30;;;9.50;51.90;;;;;;5013479;28;20857;-69
2022/10/25 06:43:29;;;;;;;618.60;583.10;;;9.50;51.90;;;;;;5014256;28;20438;-68
2022/10/25 06:45:56;;;;;;;453.77;424.43;;;9.50;51.90;;;;;;5014929;28;20437;-68
2022/10/25 06:48:22;;;;;;;591.13;556.10;;;9.50;52.90;;;;;;5015013;28;20422;-67
2022/10/25 06:50:48;;;;;;;398.27;374.87;;;9.70;52.50;;;;;;5006493;28;21036;-69
2022/10/25 06:53:15;;;;;;;454.23;427.37;;;9.70;52.60;;;;;;4994896;28;20218;-69
2022/10/25 06:55:41;;;;;;;531.10;500.50;;;9.80;53.30;;;;;;5000060;28;20741;-69
2022/10/25 06:58:07;;;;;;;493.20;462.57;;;9.90;52.20;;;;;;5013542;28;20426;-68
2022/10/25 07:00:32;;;;;;;478.00;450.70;;;10.00;51.40;;;;;;5012737;28;20418;-70
2022/10/25 07:02:59;;;;;;;594.67;558.07;;;10.10;51.40;;;;;;5015580;28;20180;-69
2022/10/25 07:05:25;;;;;;;331.67;310.80;;;10.20;49.70;;;;;;5014258;28;20180;-69
2022/10/25 07:07:51;;;;;;;560.93;526.77;;;10.30;49.40;;;;;;5014020;28;20456;-70
2022/10/25 07:10:17;;;;;;;528.93;496.67;;;10.40;49.40;;;;;;5003223;28;20487;-70
2022/10/25 07:12:43;;;;;;;447.17;422.03;;;10.50;48.20;;;;;;4997837;28;20205;-70
2022/10/25 07:15:09;;;;;;;433.47;408.40;;;10.60;48.60;;;;;;4994447;28;20423;-70
2022/10/25 07:17:34;;;;;;;570.50;535.53;;;10.70;47.00;;;;;;4994142;28;20555;-70
2022/10/25 07:20:00;;;;;;;510.50;479.13;;;10.80;46.70;;;;;;4994526;28;20412;-68
2022/10/25 07:22:25;;;;;;;570.57;535.97;;;10.80;47.10;;;;;;5003965;28;20257;-68
2022/10/25 07:24:51;;;;;;;504.60;471.80;;;10.90;46.00;;;;;;5031374;28;20652;-69
2022/10/25 07:27:17;;;;;;;534.10;500.33;;;11.00;46.70;;;;;;5028902;28;20267;-69
2022/10/25 07:29:43;;;;;;;295.67;278.90;;;11.10;46.50;;;;;;4994168;28;20200;-69
2022/10/25 07:32:09;;;;;;;317.50;297.20;;;11.20;45.40;;;;;;4993703;28;20204;-69
2022/10/25 07:34:34;;;;;;;454.87;426.43;;;11.30;44.50;;;;;;4994849;28;20416;-69
2022/10/25 07:37:00;;;;;;;392.77;367.83;;;11.40;43.00;;;;;;4999700;28;20279;-68
2022/10/25 07:39:26;;;;;;;605.70;566.47;;;11.50;42.80;;;;;;5013692;28;20179;-68
2022/10/25 07:41:52;;;;;;;263.83;247.90;;;11.60;41.90;;;;;;5013173;28;20793;-68
2022/10/25 07:44:19;;;;;;;405.27;379.67;;;11.70;42.90;;;;;;5013495;28;20165;-68
2022/10/25 07:46:45;;;;;;;608.23;569.73;;;11.70;42.90;;;;;;5009262;28;20794;-68
2022/10/25 07:49:10;;;;;;;642.93;599.87;;;11.80;42.90;;;;;;4993997;28;20408;-68
2022/10/25 07:51:36;;;;;;;582.07;543.20;;;11.90;41.50;;;;;;4994128;28;20220;-67
2022/10/25 07:54:02;;;;;;;324.93;305.80;;;11.90;43.00;;;;;;4991696;28;20422;-67
2022/10/25 07:56:29;;;;;;;475.93;444.30;;;12.10;41.80;;;;;;4994830;28;20551;-68
2022/10/25 07:58:55;;;;;;;549.40;514.33;;;12.20;41.10;;;;;;5012478;28;20176;-68
2022/10/25 08:01:23;;;;;;;508.03;472.50;;;12.30;40.40;;;;;;5012495;28;20478;-68
2022/10/25 08:03:49;;;;;;;670.70;625.07;;;12.40;38.10;;;;;;5010878;28;20419;-68
2022/10/25 08:06:15;;;;;;;716.47;665.77;;;12.50;36.90;;;;;;4996103;28;20889;-68
2022/10/25 08:08:40;;;;;;;740.33;689.50;;;12.40;35.60;;;;;;5012915;28;20421;-68
2022/10/25 08:11:07;;;;;;;725.70;675.43;;;12.30;35.00;;;;;;5012513;28;20737;-68
2022/10/25 08:13:36;;;;;;;806.27;749.43;;;12.30;35.70;;;;;;5012883;28;20168;-68
2022/10/25 08:16:01;;;;;;;367.93;344.47;;;12.30;36.70;;;;;;5012950;28;20887;-68
2022/10/25 08:18:27;;;;;;;786.60;730.77;;;12.40;35.40;;;;;;4993707;28;20427;-67
2022/10/25 08:20:52;;;;;;;348.50;326.67;;;12.40;35.10;;;;;;4992610;28;20230;-67
2022/10/25 08:23:18;;;;;;;542.77;504.80;;;12.50;35.00;;;;;;4993162;28;20216;-68
2022/10/25 08:25:44;;;;;;;397.57;372.97;;;12.50;35.70;;;;;;4993073;28;20234;-67
2022/10/25 08:28:09;;;;;;;729.47;679.73;;;12.50;36.40;;;;;;5011565;28;20657;-67
2022/10/25 08:30:35;;;;;;;567.63;529.40;;;12.60;36.00;;;;;;5011905;28;20208;-68
2022/10/25 08:33:01;;;;;;;852.33;792.87;;;12.70;34.50;;;;;;5012344;28;20168;-68
2022/10/25 08:35:27;;;;;;;723.70;671.23;;;12.70;36.00;;;;;;5005502;28;20419;-67
2022/10/25 08:37:52;;;;;;;797.23;738.77;;;12.70;34.30;;;;;;5008873;28;20630;-67
2022/10/25 08:40:33;;;;;;;911.97;845.70;;;12.80;34.10;;;;;;5012353;28;20634;-67
2022/10/25 08:43:23;;;;;;;880.57;816.17;;;12.90;36.00;;;;;;5011899;28;20579;-67
2022/10/25 08:45:59;;;;;;;518.30;482.57;;;12.90;37.80;;;;;;4994926;28;20434;-67
2022/10/25 08:48:35;;;;;;;525.37;489.77;;;13.00;37.50;;;;;;4992737;28;20480;-67
2022/10/25 08:51:24;;;;;;;491.10;461.03;;;13.00;36.20;;;;;;4992403;28;20466;-67
2022/10/25 08:53:53;;;;;;;802.87;742.73;;;13.20;33.80;;;;;;4993706;28;20455;-67
2022/10/25 08:56:19;;;;;;;703.27;652.80;;;13.40;32.60;;;;;;4992502;28;20457;-67
2022/10/25 08:58:53;;;;;;;706.37;655.03;;;13.50;32.80;;;;;;4992571;28;20432;-67
2022/10/25 09:01:25;;;;;;;365.40;342.07;;;13.60;34.10;;;;;;4992222;28;20467;-67
2022/10/25 09:03:51;;;;;;;543.20;503.90;;;13.70;33.30;;;;;;4998437;28;20534;-68
2022/10/25 09:06:26;;;;;;;784.67;726.43;;;13.90;30.10;;;;;;5012122;28;20501;-67
2022/10/25 09:09:16;;;;;;;627.43;583.13;;;14.00;30.60;;;;;;5012077;28;20187;-67
2022/10/25 09:11:45;;;;;;;837.63;775.50;;;14.10;31.30;;;;;;4998216;28;20828;-69
2022/10/25 09:14:23;;;;;;;711.57;659.07;;;14.20;30.30;;;;;;5004501;28;20749;-68
2022/10/25 09:16:51;;;;;;;590.47;548.30;;;14.30;29.70;;;;;;4992186;28;20411;-68
2022/10/25 09:19:24;;;;;;;362.03;338.50;;;14.40;28.30;;;;;;5004654;28;21137;-67
2022/10/25 09:22:00;;;;;;;377.40;348.83;;;14.60;27.90;;;;;;5010309;28;20442;-67
2022/10/25 09:24:41;;;;;;;364.80;339.87;;;14.70;27.30;;;;;;5011456;28;20419;-67
2022/10/25 09:27:14;;;;;;;543.27;504.23;;;14.90;26.00;;;;;;5012037;28;20529;-67
2022/10/25 09:29:57;;;;;;;637.73;593.00;;;15.00;26.00;;;;;;5011761;28;20414;-67
2022/10/25 09:32:38;;;;;;;684.13;636.03;;;15.00;26.00;;;;;;5011436;28;20473;-68
2022/10/25 09:35:12;;;;;;;492.80;457.73;;;15.10;26.10;;;;;;5011793;28;20418;-67
2022/10/25 09:38:05;;;;;;;316.83;292.97;;;15.10;26.20;;;;;;5011878;28;20446;-66
2022/10/25 09:40:44;;;;;;;739.80;688.57;;;15.10;26.10;;;;;;5008652;28;20427;-69
2022/10/25 09:43:16;;;;;;;130.70;119.20;;;15.20;27.30;;;;;;5011453;28;20415;-68
2022/10/25 09:45:59;;;;;;;653.03;605.13;;;15.30;27.10;;;;;;5012092;28;20468;-68
2022/10/25 09:48:31;;;;;;;748.97;696.97;;;15.40;24.70;;;;;;5012310;28;20407;-69
2022/10/25 09:51:09;;;;;;;638.70;592.30;;;15.50;24.60;;;;;;5011276;28;20463;-69
2022/10/25 09:53:39;;;;;;;717.50;665.50;;;15.60;22.20;;;;;;5011842;28;20411;-69
2022/10/25 09:56:05;;;;;;;786.53;728.97;;;15.60;22.20;;;;;;5012119;28;20523;-69
2022/10/25 09:58:34;;;;;;;944.53;876.57;;;15.80;20.90;;;;;;5011562;28;20498;-68
2022/10/25 10:01:32;;;;;;;821.07;762.47;;;15.80;21.50;;;;;;5011444;28;20251;-69
2022/10/25 10:04:13;;;;;;;659.03;610.57;;;15.90;21.10;;;;;;4998426;28;20427;-68
2022/10/25 10:06:39;;;;;;;622.73;575.67;;;15.90;21.10;;;;;;5011560;28;20426;-68
2022/10/25 10:09:06;;;;;;;712.37;661.07;;;16.00;21.00;;;;;;5011512;28;20461;-68
2022/10/25 10:11:33;;;;;;;757.57;701.77;;;16.10;21.90;;;;;;5011076;28;20466;-68
2022/10/25 10:14:05;;;;;;;449.77;415.23;;;16.00;21.80;;;;;;5011352;28;20465;-68
2022/10/25 10:16:42;;;;;;;846.17;783.93;;;16.10;21.60;;;;;;5012417;28;20414;-69
2022/10/25 10:19:17;;;;;;;716.93;666.60;;;16.10;22.00;;;;;;5015217;28;20417;-69
2022/10/25 10:21:44;;;;;;;713.97;659.93;;;16.10;21.60;;;;;;5014688;28;20439;-68
2022/10/25 10:24:24;;;;;;;794.80;736.67;;;16.20;20.60;;;;;;5014855;28;20418;-68
2022/10/25 10:26:54;;;;;;;886.50;822.80;;;16.30;20.90;;;;;;5014873;28;20766;-66
2022/10/25 10:29:25;;;;;;;375.60;346.60;;;16.40;20.90;;;;;;5014645;28;20415;-69
2022/10/25 10:32:20;;;;;;;808.23;746.13;;;16.50;19.90;;;;;;5014227;28;21018;-67
2022/10/25 10:34:53;;;;;;;846.57;786.40;;;16.60;31.60;;;;;;5014519;28;20407;-67
2022/10/25 10:37:26;;;;;;;896.47;834.10;;;16.60;18.90;;;;;;5014551;28;20425;-68
2022/10/25 10:39:57;;;;;;;352.53;326.00;;;16.70;18.70;;;;;;5014683;28;20439;-68
2022/10/25 10:42:30;;;;;;;793.70;737.40;;;16.70;21.40;;;;;;5014415;28;20525;-68
2022/10/25 10:45:08;;;;;;;183.13;166.40;;;16.80;18.70;;;;;;5014442;28;20425;-68
2022/10/25 10:47:35;;;;;;;977.10;905.37;;;16.90;41.60;;;;;;5014566;28;20812;-68
2022/10/25 10:50:10;;;;;;;648.50;591.53;;;16.90;17.50;;;;;;5014306;28;20462;-68
2022/10/25 10:52:43;;;;;;;688.10;620.60;;;;;;;;;;5013964;28;20512;-68
2022/10/25 10:55:36;;;;;;;786.90;706.57;;;16.90;46.10;;;;;;5014490;28;20410;-69
2022/10/25 10:58:26;;;;;;;914.70;829.73;;;17.00;45.00;;;;;;5012067;28;20446;-68
2022/10/25 11:01:00;;;;;;;861.30;794.43;;;17.20;17.30;;;;;;5014007;28;20952;-68
2022/10/25 11:03:47;;;;;;;766.73;696.50;;;17.20;17.50;;;;;;5014242;28;20410;-68
2022/10/25 11:06:15;;;;;;;517.13;477.60;;;17.20;16.20;;;;;;5014207;28;20411;-67
2022/10/25 11:08:42;;;;;;;848.27;778.70;;;17.30;15.50;;;;;;5013971;28;20415;-68
2022/10/25 11:11:18;;;;;;;880.53;798.60;;;17.30;15.30;;;;;;5014134;28;20493;-68
2022/10/25 11:13:57;;;;;;;877.83;792.97;;;17.30;15.40;;;;;;5013955;28;20405;-68
2022/10/25 11:16:35;;;;;;;904.60;819.80;;;17.50;14.50;;;;;;5014026;28;20406;-68
2022/10/25 11:19:09;;;;;;;678.10;615.33;;;17.60;12.70;;;;;;5013825;28;20414;-68
2022/10/25 11:21:53;;;;;;;967.73;880.60;;;17.70;13.60;;;;;;5013459;28;20442;-68
2022/10/25 11:24:32;;;;;;;754.23;688.83;;;17.80;15.10;;;;;;5013851;28;20751;-68
2022/10/25 11:27:23;;;;;;;544.63;504.10;;;17.80;13.40;;;;;;5013490;28;20406;-67
2022/10/25 11:30:01;;;;;;;940.10;846.67;;;17.90;12.50;;;;;;5011901;28;20469;-69
2022/10/25 11:32:44;;;;;;;970.17;880.43;;;17.90;13.00;;;;;;5013455;28;20450;-68
2022/10/25 11:35:28;;;;;;;1011.07;922.90;;;17.90;13.10;;;;;;5013807;28;20477;-68
2022/10/25 11:38:02;;;;;;;898.13;824.30;;;18.00;12.70;;;;;;5012549;28;20490;-68
2022/10/25 11:40:34;;;;;;;484.00;439.97;;;18.00;13.40;;;;;;5000922;28;20955;-69
2022/10/25 11:43:08;;;;;;;956.93;881.27;;;18.10;13.30;;;;;;4993841;28;20917;-66
2022/10/25 11:45:41;;;;;;;668.43;618.77;;;18.20;10.00;;;;;;5001870;28;20414;-67
2022/10/25 11:48:25;;;;;;;697.20;640.70;;;18.30;10.20;;;;;;5012019;28;20426;-67
2022/10/25 11:51:03;;;;;;;787.47;729.30;;;18.30;8.70;;;;;;5004453;28;20500;-67
2022/10/25 11:53:59;;;;;;;856.07;787.37;;;18.30;10.00;;;;;;4993607;28;20730;-67
2022/10/25 11:56:47;;;;;;;1020.03;927.17;;;18.30;9.50;;;;;;4993735;28;20412;-67
2022/10/25 11:59:15;;;;;;;933.57;846.30;;;18.30;11.00;;;;;;4993759;28;20416;-67
2022/10/25 12:02:09;;;;;;;448.03;414.30;;;18.30;10.50;;;;;;4993112;28;20435;-66
2022/10/25 12:04:53;;;;;;;964.50;882.17;;;18.40;9.50;;;;;;4993669;28;20910;-67
2022/10/25 12:07:34;;;;;;;684.50;632.67;;;18.40;8.30;;;;;;4994089;28;20924;-67
2022/10/25 12:10:33;;;;;;;1004.23;913.83;;;18.40;8.60;;;;;;4993801;28;20448;-67
2022/10/25 12:13:11;;;;;;;720.47;655.93;;;18.30;9.70;;;;;;4989009;28;20420;-67
2022/10/25 12:15:41;;;;;;;775.60;713.73;;;18.30;8.10;;;;;;4993608;28;20798;-67
2022/10/25 12:18:14;;;;;;;776.13;716.93;;;18.30;7.60;;;;;;4994296;28;20416;-67
2022/10/25 12:20:42;;;;;;;682.73;628.17;;;18.30;7.50;;;;;;4993202;28;20404;-67
2022/10/25 12:23:12;;;;;;;690.83;638.17;;;18.30;7.10;;;;;;4993383;28;20829;-67
2022/10/25 12:25:46;;;;;;;796.93;728.07;;;18.40;7.10;;;;;;4993321;28;21033;-67
2022/10/25 12:28:28;;;;;;;792.90;726.10;;;18.40;7.10;;;;;;4993678;28;20808;-67